• Join FlightAware (Why Join?)
  • Login
  • US Flag 
06:42PM EDT


 

Airport Tracker/Info


-or-


 

Live Flight TrackerFlight Track Log ✈ UAL274 ✈ 23-Jan-2014 ✈ KLAX - MMMX / MEX

Flight Track Log - Related Links

Times and Time Zones

All times are in EST time to prevent confusion due to time zone crossing. See the UAL274 flight status page for this flight to view local times or setup timezone preferences in your user account.

Time Position Orientation Groundspeed Altitude Reporting Facility
EST Latitude Longitude Course Direction KTS MPH feet Rate Location/Type
08:56PM 33.9333 -118.4500 231° Southwest 178 205 1,600  Level Southern California TRACON
08:57PM 33.9000 -118.5000 231° Southwest 231 266 3,300 1,860 Climbing Southern California TRACON
08:58PM 33.8611 -118.5172 200° South 255 293 4,500 2,940 Climbing Los Angeles Center
08:59PM 33.7889 -118.5572 205° Southwest 271 312 8,000 2,760 Climbing Los Angeles Center
09:00PM 33.7169 -118.5297 162° South 276 318 10,300 2,100 Climbing Los Angeles Center
09:01PM 33.6522 -118.4569 137° Southeast 332 382 12,400 2,160 Climbing Los Angeles Center
09:02PM 33.5922 -118.3703 130° Southeast 342 394 14,800 1,920 Climbing Los Angeles Center
09:03PM 33.5328 -118.2400 119° Southeast 390 449 16,400 1,680 Climbing Los Angeles Center
09:04PM 33.4956 -118.1114 109° East 413 475 18,300 1,800 Climbing Los Angeles Center
09:05PM 33.4575 -117.9789 109° East 422 486 20,200 1,560 Climbing Los Angeles Center
09:06PM 33.4175 -117.8428 109° East 432 497 21,600 1,260 Climbing Los Angeles Center
09:07PM 33.3642 -117.7078 115° Southeast 447 514 22,900 1,440 Climbing Los Angeles Center
09:08PM 33.2922 -117.5436 118° Southeast 464 534 24,600 1,320 Climbing Los Angeles Center
09:09PM 33.2314 -117.4036 117° Southeast 475 547 25,700 1,080 Climbing Los Angeles Center
09:10PM 33.1700 -117.2583 117° Southeast 488 562 26,900 1,140 Climbing Los Angeles Center
09:11PM 33.1022 -117.0969 117° Southeast 486 559 28,100 1,080 Climbing Los Angeles Center
09:12PM 33.0389 -116.9494 117° Southeast 497 572 29,200 1,140 Climbing Los Angeles Center
09:13PM 32.9756 -116.8044 117° Southeast 497 572 30,500 1,080 Climbing Los Angeles Center
09:15PM 32.9119 -116.6614 118° Southeast 494 568 31,500 840 Climbing Los Angeles Center
09:16PM 32.8414 -116.5025 118° Southeast 500 575 32,300 720 Climbing Los Angeles Center
09:17PM 32.7714 -116.3458 118° Southeast 509 586 33,100 780 Climbing Los Angeles Center
09:18PM 32.7075 -116.1989 117° Southeast 509 586 34,000 780 Climbing Los Angeles Center
09:19PM 32.6419 -116.0517 118° Southeast 508 585 34,800 720 Climbing Los Angeles Center
09:21PM 32.4964 -115.8217 119° Southeast  Level Estimated
09:28PM 32.0494 -114.8857 119° Southeast  Level FlightAware Approximate
09:29PM 31.9850 -114.7528 120° Southeast  Level FlightAware Approximate
09:30PM 31.9204 -114.6200 120° Southeast  Level FlightAware Approximate
09:31PM 31.8557 -114.4874 120° Southeast  Level FlightAware Approximate
09:32PM 31.7909 -114.3551 120° Southeast  Level FlightAware Approximate
09:33PM 31.7259 -114.2228 120° Southeast  Level FlightAware Approximate
09:34PM 31.6608 -114.0908 120° Southeast  Level FlightAware Approximate
09:35PM 31.5956 -113.9590 120° Southeast  Level FlightAware Approximate
09:36PM 31.5302 -113.8273 120° Southeast  Level FlightAware Approximate
09:37PM 31.4647 -113.6959 120° Southeast  Level FlightAware Approximate
09:38PM 31.3990 -113.5646 120° Southeast  Level FlightAware Approximate
09:39PM 31.3172 -113.4466 129° Southeast  Level Estimated
09:40PM 31.2366 -113.3274 128° Southeast  Level FlightAware Approximate
09:41PM 31.1560 -113.2085 128° Southeast  Level FlightAware Approximate
09:42PM 31.0752 -113.0897 128° Southeast  Level FlightAware Approximate
09:43PM 30.9944 -112.9712 128° Southeast  Level FlightAware Approximate
09:44PM 30.9134 -112.8528 129° Southeast  Level FlightAware Approximate
09:45PM 30.8323 -112.7346 129° Southeast  Level FlightAware Approximate
09:46PM 30.7512 -112.6167 129° Southeast  Level FlightAware Approximate
09:47PM 30.6683 -112.5004 130° Southeast  Level Estimated
09:48PM 30.5854 -112.3843 130° Southeast  Level FlightAware Approximate
09:49PM 30.5023 -112.2684 130° Southeast  Level FlightAware Approximate
09:50PM 30.4192 -112.1527 130° Southeast  Level FlightAware Approximate
09:51PM 30.3359 -112.0373 130° Southeast  Level FlightAware Approximate
09:52PM 30.2525 -111.9220 130° Southeast  Level FlightAware Approximate
09:53PM 30.1691 -111.8069 130° Southeast  Level FlightAware Approximate
09:54PM 30.0855 -111.6920 130° Southeast  Level FlightAware Approximate
09:55PM 30.0019 -111.5773 130° Southeast  Level FlightAware Approximate
09:56PM 29.9181 -111.4628 130° Southeast  Level FlightAware Approximate
09:57PM 29.8342 -111.3485 130° Southeast  Level FlightAware Approximate
09:58PM 29.7503 -111.2343 130° Southeast  Level FlightAware Approximate
09:59PM 29.6662 -111.1204 130° Southeast  Level FlightAware Approximate
10:00PM 29.5821 -111.0067 130° Southeast  Level FlightAware Approximate
10:01PM 29.4978 -110.8931 130° Southeast  Level FlightAware Approximate
10:02PM 29.4135 -110.7797 130° Southeast  Level FlightAware Approximate
10:03PM 29.3291 -110.6666 131° Southeast  Level FlightAware Approximate
10:04PM 29.2445 -110.5536 131° Southeast  Level Estimated
10:05PM 29.1599 -110.4408 130° Southeast  Level Estimated
10:06PM 29.0760 -110.3273 130° Southeast  Level FlightAware Approximate
10:07PM 28.9921 -110.2140 130° Southeast  Level FlightAware Approximate
10:08PM 28.9080 -110.1009 130° Southeast  Level FlightAware Approximate
10:09PM 28.8239 -109.9880 130° Southeast  Level FlightAware Approximate
10:10PM 28.7396 -109.8753 130° Southeast  Level FlightAware Approximate
10:11PM 28.6553 -109.7628 130° Southeast  Level FlightAware Approximate
10:12PM 28.5709 -109.6504 131° Southeast  Level FlightAware Approximate
10:13PM 28.4863 -109.5382 131° Southeast  Level FlightAware Approximate
10:14PM 28.4017 -109.4262 131° Southeast  Level FlightAware Approximate
10:15PM 28.3170 -109.3144 131° Southeast  Level FlightAware Approximate
10:16PM 28.2322 -109.2028 131° Southeast  Level FlightAware Approximate
10:17PM 28.1464 -109.0922 132° Southeast  Level Estimated
10:18PM 28.0601 -108.9822 132° Southeast  Level FlightAware Approximate
10:19PM 27.9737 -108.8724 132° Southeast  Level FlightAware Approximate
10:20PM 27.8877 -108.7624 131° Southeast  Level Estimated
10:21PM 27.8020 -108.6520 131° Southeast  Level FlightAware Approximate
10:22PM 27.7163 -108.5418 131° Southeast  Level FlightAware Approximate
10:23PM 27.6305 -108.4318 131° Southeast  Level FlightAware Approximate
10:24PM 27.5446 -108.3220 131° Southeast  Level FlightAware Approximate
10:25PM 27.4586 -108.2123 131° Southeast  Level FlightAware Approximate
10:26PM 27.3725 -108.1028 132° Southeast  Level FlightAware Approximate
10:27PM 27.2864 -107.9935 132° Southeast  Level FlightAware Approximate
10:28PM 27.2001 -107.8843 132° Southeast  Level FlightAware Approximate
10:29PM 27.1132 -107.7759 130° Southeast  Level Estimated
10:30PM 27.0301 -107.6639 130° Southeast  Level FlightAware Approximate
10:31PM 26.9469 -107.5520 130° Southeast  Level FlightAware Approximate
10:32PM 26.8597 -107.4442 132° Southeast  Level Estimated
10:33PM 26.7732 -107.3357 132° Southeast  Level FlightAware Approximate
10:34PM 26.6866 -107.2273 132° Southeast  Level FlightAware Approximate
10:35PM 26.5999 -107.1192 132° Southeast  Level FlightAware Approximate
10:36PM 26.5132 -107.0112 132° Southeast  Level FlightAware Approximate
10:37PM 26.4263 -106.9033 132° Southeast  Level FlightAware Approximate
10:38PM 26.3386 -106.7965 131° Southeast  Level Estimated
10:39PM 26.2529 -106.6877 131° Southeast  Level FlightAware Approximate
10:40PM 26.1672 -106.5790 131° Southeast  Level FlightAware Approximate
10:41PM 26.0814 -106.4705 131° Southeast  Level FlightAware Approximate
10:42PM 25.9955 -106.3622 131° Southeast  Level FlightAware Approximate
10:43PM 25.9095 -106.2540 131° Southeast  Level FlightAware Approximate
10:44PM 25.8234 -106.1459 131° Southeast  Level FlightAware Approximate
10:45PM 25.7373 -106.0380 132° Southeast  Level FlightAware Approximate
10:46PM 25.6510 -105.9303 132° Southeast  Level FlightAware Approximate
10:47PM 25.5623 -105.8252 133° Southeast  Level Estimated
10:48PM 25.4734 -105.7204 133° Southeast  Level FlightAware Approximate
10:49PM 25.3844 -105.6157 133° Southeast  Level FlightAware Approximate
10:50PM 25.2954 -105.5110 132° Southeast  Level Estimated
10:51PM 25.2083 -105.4046 132° Southeast  Level FlightAware Approximate
10:52PM 25.1210 -105.2984 132° Southeast  Level FlightAware Approximate
10:53PM 25.0337 -105.1923 132° Southeast  Level FlightAware Approximate
10:54PM 24.9463 -105.0864 132° Southeast  Level FlightAware Approximate
10:55PM 24.8588 -104.9806 132° Southeast  Level FlightAware Approximate
10:56PM 24.7713 -104.8749 132° Southeast  Level FlightAware Approximate
10:57PM 24.6837 -104.7695 132° Southeast  Level FlightAware Approximate
10:58PM 24.5960 -104.6641 132° Southeast  Level FlightAware Approximate
10:59PM 24.5082 -104.5589 133° Southeast  Level FlightAware Approximate
11:00PM 24.4204 -104.4539 133° Southeast  Level FlightAware Approximate
11:01PM 24.3303 -104.3512 134° Southeast  Level Estimated
11:02PM 24.2407 -104.2481 134° Southeast  Level FlightAware Approximate
11:03PM 24.1510 -104.1452 134° Southeast  Level FlightAware Approximate
11:04PM 24.0613 -104.0424 134° Southeast  Level FlightAware Approximate
11:05PM 23.9715 -103.9397 134° Southeast  Level FlightAware Approximate
11:06PM 23.8816 -103.8372 134° Southeast  Level FlightAware Approximate
11:07PM 23.7917 -103.7348 134° Southeast  Level FlightAware Approximate
11:08PM 23.7017 -103.6326 134° Southeast  Level FlightAware Approximate
11:09PM 23.6116 -103.5305 134° Southeast  Level FlightAware Approximate
11:10PM 23.5215 -103.4286 134° Southeast  Level FlightAware Approximate
11:11PM 23.4306 -103.3275 133° Southeast  Level Estimated
11:12PM 23.3430 -103.2230 132° Southeast  Level FlightAware Approximate
11:13PM 23.2553 -103.1188 132° Southeast  Level FlightAware Approximate
11:14PM 23.1641 -103.0182 133° Southeast  Level Estimated
11:15PM 23.0767 -102.9138 132° Southeast  Level FlightAware Approximate
11:16PM 22.9893 -102.8095 132° Southeast  Level FlightAware Approximate
11:17PM 22.9018 -102.7053 132° Southeast  Level FlightAware Approximate
11:18PM 22.8100 -102.6057 135° Southeast  Level Estimated
11:19PM 22.7190 -102.5052 134° Southeast  Level FlightAware Approximate
11:20PM 22.6280 -102.4049 135° Southeast  Level FlightAware Approximate
11:21PM 22.5368 -102.3048 135° Southeast  Level FlightAware Approximate
11:22PM 22.4457 -102.2047 135° Southeast  Level FlightAware Approximate
11:23PM 22.3534 -102.1059 134° Southeast  Level Estimated
11:24PM 22.2640 -102.0041 134° Southeast  Level FlightAware Approximate
11:25PM 22.1746 -101.9025 134° Southeast  Level FlightAware Approximate
11:26PM 22.0850 -101.8009 134° Southeast  Level FlightAware Approximate
11:27PM 21.9954 -101.6996 134° Southeast  Level FlightAware Approximate
11:28PM 21.9058 -101.5983 134° Southeast  Level FlightAware Approximate
11:29PM 21.8127 -101.5008 134° Southeast  Level Estimated
11:30PM 21.7256 -101.3971 132° Southeast  Level FlightAware Approximate
11:31PM 21.6321 -101.3001 135° Southeast  Level Estimated
11:32PM 21.5406 -101.2011 135° Southeast  Level FlightAware Approximate
11:33PM 21.4490 -101.1022 135° Southeast  Level FlightAware Approximate
11:34PM 21.3573 -101.0034 135° Southeast  Level FlightAware Approximate
11:35PM 21.2656 -100.9048 135° Southeast  Level FlightAware Approximate
11:36PM 21.1738 -100.8063 135° Southeast  Level FlightAware Approximate
11:37PM 21.0820 -100.7078 135° Southeast  Level FlightAware Approximate
11:38PM 20.9902 -100.6096 135° Southeast  Level FlightAware Approximate
11:39PM 20.8954 -100.5145 132° Southeast  Level Estimated
11:40PM 20.8006 -100.4196 134° Southeast  Level Estimated
11:41PM 20.7057 -100.3248 137° Southeast  Level Estimated
11:42PM 20.6108 -100.2301 118° Southeast  Level Estimated
11:43PM 20.5158 -100.1356 130° Southeast  Level Estimated
11:44PM 20.4208 -100.0411 129° Southeast  Level Estimated
11:45PM 20.3710 -99.9132 113° Southeast  Level FlightAware Approximate
11:46PM 20.2721 -99.8235 130° Southeast  Level Estimated
11:47PM 20.2013 -99.7075 123° Southeast  Level FlightAware Approximate
11:48PM 20.1304 -99.5916 123° Southeast  Level FlightAware Approximate
11:49PM 20.0594 -99.4759 123° Southeast  Level FlightAware Approximate
11:50PM 19.9486 -99.4038 125° Southeast  Level Estimated
11:51PM 19.8378 -99.3318 133° Southeast  Level Estimated
11:52PM 19.8140 -99.1962 101° East  Level FlightAware Approximate
11:53PM 19.6900 -99.1553 197° South  Level Estimated
11:54PM 19.5659 -99.1146 180° South  Level Estimated
11:55PM 19.4731 -99.0567 193° South  Level FlightAware Approximate
11:56PM 19.4363 -99.0721 180° South  Level Estimated
11:57PM 19.4363 -99.0721 180° South  Level Estimated
11:58PM 19.4363 -99.0721 180° South  Level Estimated
11:59PM 19.4363 -99.0721 180° South  Level Estimated
12:00AM 19.4363 -99.0721 180° South  Level Estimated
12:01AM 19.4363 -99.0721 180° South  Level Estimated
12:02AM 19.4363 -99.0721 180° South  Level Estimated
12:03AM 19.4363 -99.0721 180° South  Level Estimated
12:04AM 19.4363 -99.0721 180° South  Level Estimated
12:05AM 19.4363 -99.0721 180° South  Level Estimated
12:06AM 19.4363 -99.0721 180° South  Level Estimated
12:07AM 19.4363 -99.0721 180° South  Level Estimated
12:08AM 19.4363 -99.0721 180° South  Level Estimated
12:09AM 19.4363 -99.0721 180° South  Level Estimated
12:10AM 19.4363 -99.0721 180° South  Level Estimated
12:11AM 19.4363 -99.0721 180° South  Level Estimated
12:12AM 19.4363 -99.0721 180° South  Level Estimated